Time;durP1;ratioP1;P1;durP2;ratioP2;P2;SDS_P1;SDS_P2;PMS_P1;PMS_P2;Temp;Humidity;BMP_temperature;BMP_pressure;BME280_temperature;BME280_humidity;BME280_pressure;Samples;Min_cycle;Max_cycle;Signal;HPM_P1;HPM_P2
2023/01/27 00:00:16;;;;;;;119.00;56.10;;;;;;;1.62;77.24;100636.83;129978;1259;114798;-64
2023/01/27 00:03:38;;;;;;;122.00;55.00;;;;;;;1.62;77.59;100632.77;129821;1254;114729;-63
2023/01/27 00:06:40;;;;;;;119.20;56.10;;;;;;;1.61;77.57;100634.02;130003;1257;114801;-67
2023/01/27 00:09:43;;;;;;;119.20;54.90;;;;;;;1.60;77.66;100631.73;129933;1253;114824;-63
2023/01/27 00:16:07;;;;;;;111.90;56.60;;;;;;;1.63;77.86;100627.83;129909;1271;114732;-66
2023/01/27 00:19:09;;;;;;;114.40;52.50;;;;;;;1.72;77.91;100627.41;130070;1257;114725;-63
2023/01/27 00:25:33;;;;;;;121.20;57.40;;;;;;;1.82;77.78;100626.45;129952;1277;114741;-64
2023/01/27 00:28:37;;;;;;;131.60;60.40;;;;;;;1.83;77.93;100627.85;130091;1269;114788;-63
2023/01/27 00:35:00;;;;;;;131.20;60.80;;;;;;;1.90;78.12;100634.83;129732;1259;115270;-67
2023/01/27 00:38:02;;;;;;;130.00;59.00;;;;;;;1.91;78.12;100638.88;129993;1260;114796;-67
2023/01/27 00:41:14;;;;;;;116.90;51.40;;;;;;;1.92;78.10;100640.45;129856;1253;114779;-67
2023/01/27 00:44:16;;;;;;;117.20;52.10;;;;;;;1.92;77.98;100640.80;129625;1254;115431;-68
2023/01/27 00:47:18;;;;;;;100.00;48.30;;;;;;;1.93;77.73;100645.37;130001;1259;114746;-67
2023/01/27 00:50:21;;;;;;;106.30;51.70;;;;;;;1.93;77.96;100642.55;130038;1258;115113;-67
2023/01/27 00:53:23;;;;;;;107.60;49.70;;;;;;;1.94;78.10;100643.79;129815;1262;115387;-64
2023/01/27 00:56:26;;;;;;;106.10;49.00;;;;;;;1.90;78.03;100644.89;130004;1257;115160;-66
2023/01/27 00:59:30;;;;;;;115.30;51.50;;;;;;;1.89;77.94;100645.95;130024;1258;114814;-68
2023/01/27 01:02:32;;;;;;;111.50;50.70;;;;;;;1.87;78.03;100649.48;129937;1277;115189;-68
2023/01/27 01:05:34;;;;;;;113.80;50.20;;;;;;;1.85;78.24;100652.67;129868;1277;114823;-68
2023/01/27 01:08:37;;;;;;;115.30;53.10;;;;;;;1.84;78.30;100653.02;130106;1277;114843;-68
2023/01/27 01:11:39;;;;;;;117.60;54.50;;;;;;;1.80;78.18;100652.18;129997;1257;116382;-68
2023/01/27 01:14:42;;;;;;;127.60;53.90;;;;;;;1.74;78.41;100651.17;130058;1259;114669;-69
2023/01/27 01:17:44;;;;;;;125.40;50.40;;;;;;;1.73;78.51;100648.19;129976;1277;115055;-69
2023/01/27 01:20:47;;;;;;;118.60;49.90;;;;;;;1.76;78.44;100646.93;129966;1267;114750;-69
2023/01/27 01:23:49;;;;;;;111.00;48.00;;;;;;;1.79;78.67;100649.54;129979;1259;114785;-69
2023/01/27 01:26:51;;;;;;;120.90;49.50;;;;;;;1.80;78.47;100647.96;130018;1256;114896;-68
2023/01/27 01:29:54;;;;;;;124.60;50.80;;;;;;;1.78;78.29;100648.50;130086;1277;114824;-68
2023/01/27 01:32:56;;;;;;;132.60;52.60;;;;;;;1.75;78.53;100643.76;130075;1259;115414;-67
2023/01/27 01:36:06;;;;;;;132.00;51.10;;;;;;;1.76;78.45;100641.11;129748;1262;115148;-68
2023/01/27 01:39:08;;;;;;;126.80;50.90;;;;;;;1.76;78.49;100637.06;129925;1254;115087;-69
2023/01/27 01:42:10;;;;;;;134.00;52.00;;;;;;;1.73;78.34;100637.45;129935;1272;114750;-68
2023/01/27 01:45:47;;;;;;;133.10;51.90;;;;;;;1.68;78.64;100636.60;130008;1277;114731;-65
2023/01/27 01:48:59;;;;;;;130.80;50.20;;;;;;;1.63;78.61;100640.34;129152;1268;116621;-67
2023/01/27 01:52:07;;;;;;;118.70;48.60;;;;;;;1.65;78.78;100638.20;129177;1285;115013;-65
2023/01/27 01:55:09;;;;;;;125.80;49.70;;;;;;;1.67;78.74;100643.30;129367;1262;115071;-68
2023/01/27 01:58:14;;;;;;;;;;;;;;;1.69;78.83;100644.70;129252;1262;115229;-65
2023/01/27 02:01:18;;;;;;;115.00;51.50;;;;;;;1.71;79.06;100643.27;129296;1266;114897;-66
2023/01/27 02:04:24;;;;;;;143.80;51.70;;;;;;;1.72;78.92;100644.50;129281;1285;114819;-65
2023/01/27 02:07:46;;;;;;;134.30;55.90;;;;;;;1.74;78.91;100649.23;129128;1268;114801;-69
2023/01/27 02:10:49;;;;;;;150.30;54.70;;;;;;;1.78;79.06;100649.02;129257;1268;114969;-68
2023/01/27 02:13:51;;;;;;;132.90;53.40;;;;;;;1.81;79.13;100645.49;129133;1277;115370;-67
2023/01/27 02:16:53;;;;;;;123.30;48.20;;;;;;;1.81;78.82;100646.38;130636;1253;114835;-62
2023/01/27 02:20:18;;;;;;;129.10;48.80;;;;;;;1.79;78.88;100650.42;130422;1257;114655;-62
2023/01/27 02:23:42;;;;;;;127.10;48.30;;;;;;;1.78;79.20;100650.80;130237;1257;115052;-61
2023/01/27 02:26:45;;;;;;;130.50;50.00;;;;;;;1.75;78.97;100651.16;130168;1275;114711;-61
2023/01/27 02:29:47;;;;;;;125.90;49.80;;;;;;;1.75;78.68;100654.33;130296;1256;114698;-62
2023/01/27 02:32:50;;;;;;;132.90;52.20;;;;;;;1.77;78.96;100653.26;130184;1257;114741;-62
2023/01/27 02:36:06;;;;;;;134.70;55.10;;;;;;;1.82;79.51;100650.92;130205;1275;114813;-61
2023/01/27 02:39:11;;;;;;;134.40;53.50;;;;;;;1.86;79.44;100650.36;129853;1276;114850;-62
2023/01/27 02:42:14;;;;;;;142.60;55.30;;;;;;;1.92;79.52;100651.90;129663;1276;114817;-60
2023/01/27 02:45:16;;;;;;;145.50;56.50;;;;;;;1.88;79.35;100650.35;130004;1260;115308;-60
2023/01/27 02:48:18;;;;;;;147.30;56.40;;;;;;;1.84;78.91;100653.39;130030;1276;115311;-60
2023/01/27 02:51:21;;;;;;;158.80;57.40;;;;;;;1.78;79.15;100649.91;130250;1276;114717;-60
2023/01/27 02:54:24;;;;;;;157.80;57.70;;;;;;;1.74;78.94;100653.45;130181;1276;128840;-60
2023/01/27 02:57:27;;;;;;;143.10;53.90;;;;;;;1.74;79.32;100653.27;129993;1276;115217;-60
2023/01/27 03:00:29;;;;;;;141.30;53.80;;;;;;;1.75;79.68;100653.98;130002;1261;115148;-60
2023/01/27 03:03:31;;;;;;;148.80;54.80;;;;;;;1.78;79.50;100653.42;129978;1276;114708;-61
2023/01/27 03:06:33;;;;;;;150.70;55.00;;;;;;;1.80;79.66;100649.71;129865;1276;114817;-60
2023/01/27 03:09:36;;;;;;;145.60;57.50;;;;;;;1.81;79.49;100650.08;130041;1275;114766;-60
2023/01/27 03:12:38;;;;;;;161.80;59.90;;;;;;;1.85;79.61;100650.73;130134;1256;114787;-60
2023/01/27 03:19:02;;;;;;;154.70;58.90;;;;;;;1.91;79.81;100655.08;130122;1256;114749;-60
2023/01/27 03:22:04;;;;;;;155.50;61.00;;;;;;;1.95;79.65;100658.40;130236;1269;114727;-60
2023/01/27 03:25:07;;;;;;;141.80;54.90;;;;;;;2.00;79.71;100661.53;130218;1266;114770;-60
2023/01/27 03:28:11;;;;;;;151.10;59.50;;;;;;;1.98;79.37;100661.72;130174;1275;114685;-60
2023/01/27 03:31:18;;;;;;;157.20;58.40;;;;;;;1.98;79.69;100660.48;129961;1275;114824;-60
2023/01/27 03:34:20;;;;;;;142.70;60.00;;;;;;;1.98;79.64;100655.55;130042;1266;128572;-60
2023/01/27 03:47:26;;;;;;;136.60;54.70;;;;;;;1.91;79.80;100651.55;129924;1275;116372;-62
2023/01/27 03:50:42;;;;;;;138.40;57.90;;;;;;;1.89;79.76;100654.92;130183;1262;114740;-62
2023/01/27 03:53:44;;;;;;;135.30;57.70;;;;;;;1.88;79.65;100655.28;130322;1256;114864;-66
2023/01/27 03:56:46;;;;;;;149.70;57.30;;;;;;;1.88;79.82;100660.41;130352;1257;115096;-66
2023/01/27 03:59:49;;;;;;;147.80;60.30;;;;;;;1.85;79.68;100654.61;130328;1257;114698;-67
2023/01/27 04:09:36;;;;;;;153.50;63.50;;;;;;;1.82;80.00;100650.06;130173;1276;127498;-61
2023/01/27 04:12:39;;;;;;;150.60;63.50;;;;;;;1.80;79.97;100647.95;130179;1261;114803;-61
2023/01/27 04:15:42;;;;;;;152.40;62.70;;;;;;;1.76;79.89;100646.75;130324;1260;114764;-67
2023/01/27 04:18:45;;;;;;;154.40;61.40;;;;;;;1.77;79.97;100644.80;130093;1257;115138;-61
2023/01/27 04:21:48;;;;;;;143.60;61.40;;;;;;;1.77;80.14;100643.58;130087;1258;114795;-61
2023/01/27 04:24:50;;;;;;;148.70;62.90;;;;;;;1.77;80.29;100648.14;129841;1274;115408;-62
2023/01/27 04:27:55;;;;;;;152.90;64.90;;;;;;;1.79;80.26;100645.33;130041;1276;128984;-61
2023/01/27 04:30:59;;;;;;;168.80;69.00;;;;;;;1.84;80.29;100646.70;129931;1261;115211;-61
2023/01/27 04:34:01;;;;;;;174.90;69.90;;;;;;;1.82;80.02;100648.64;130143;1257;114738;-61
2023/01/27 04:37:05;;;;;;;170.50;71.30;;;;;;;1.84;80.35;100648.10;130091;1257;115067;-61
2023/01/27 04:40:08;;;;;;;185.70;74.30;;;;;;;1.88;80.50;100650.89;129685;1275;114808;-61
2023/01/27 04:43:10;;;;;;;194.00;77.00;;;;;;;1.88;80.55;100653.17;130105;1266;114725;-61
2023/01/27 04:46:13;;;;;;;168.60;71.50;;;;;;;1.85;80.36;100650.56;130102;1273;114845;-61
2023/01/27 04:49:16;;;;;;;177.00;72.00;;;;;;;1.82;80.36;100649.35;130121;1257;114801;-61
2023/01/27 04:52:18;;;;;;;181.30;72.00;;;;;;;1.83;80.32;100653.56;129770;1255;114798;-61
2023/01/27 04:55:20;;;;;;;191.20;74.40;;;;;;;1.84;80.25;100651.95;130073;1257;115144;-61
2023/01/27 04:58:22;;;;;;;187.20;76.50;;;;;;;1.86;80.28;100653.72;130102;1257;114747;-61
2023/01/27 05:01:25;;;;;;;193.00;76.30;;;;;;;1.90;80.48;100657.56;130103;1269;114849;-61
2023/01/27 05:04:27;;;;;;;198.20;76.60;;;;;;;1.95;80.42;100655.05;130009;1276;114674;-61
2023/01/27 05:07:30;;;;;;;197.50;78.60;;;;;;;2.00;80.45;100653.95;130077;1255;114705;-61
2023/01/27 05:10:32;;;;;;;200.60;78.00;;;;;;;2.02;80.40;100659.74;130093;1275;115495;-61
2023/01/27 05:13:35;;;;;;;207.90;83.30;;;;;;;2.01;80.30;100661.87;130057;1276;114731;-61
2023/01/27 05:16:38;;;;;;;200.20;77.70;;;;;;;2.00;80.24;100665.93;130038;1254;115068;-60
2023/01/27 05:19:40;;;;;;;193.40;71.70;;;;;;;2.01;80.33;100669.27;130060;1257;114727;-61
2023/01/27 05:22:42;;;;;;;204.40;80.20;;;;;;;2.01;80.23;100678.25;129979;1266;114725;-62
2023/01/27 05:25:44;;;;;;;201.40;81.20;;;;;;;2.02;80.34;100681.42;130007;1257;114731;-61
2023/01/27 05:28:48;;;;;;;200.90;79.90;;;;;;;2.05;80.24;100682.63;129965;1276;115647;-61
2023/01/27 05:31:50;;;;;;;188.90;77.70;;;;;;;2.07;80.42;100684.90;130106;1276;114826;-61
2023/01/27 05:34:53;;;;;;;133.40;50.60;;;;;;;2.08;80.42;100687.88;130092;1276;114751;-61
2023/01/27 05:37:55;;;;;;;109.60;46.10;;;;;;;2.07;80.44;100685.80;130220;1258;114799;-61
2023/01/27 05:41:01;;;;;;;95.20;42.40;;;;;;;2.07;80.30;100687.00;130138;1267;114696;-61
2023/01/27 05:44:04;;;;;;;85.70;37.00;;;;;;;2.09;80.66;100689.11;129963;1276;128485;-61
2023/01/27 05:47:06;;;;;;;77.90;34.10;;;;;;;2.08;80.56;100689.98;130049;1276;114770;-61
2023/01/27 05:50:09;;;;;;;60.00;25.70;;;;;;;2.10;80.11;100693.69;130184;1258;114804;-61
2023/01/27 05:53:12;;;;;;;59.40;28.20;;;;;;;2.09;80.05;100695.11;130091;1257;114715;-62
2023/01/27 05:56:16;;;;;;;59.40;28.40;;;;;;;2.07;80.63;100698.28;130121;1276;115099;-61
2023/01/27 05:59:19;;;;;;;64.90;31.60;;;;;;;2.06;80.13;100698.84;130045;1266;114718;-61
2023/01/27 06:02:21;;;;;;;67.50;30.30;;;;;;;2.05;80.31;100703.41;130011;1276;114728;-63
2023/01/27 06:05:24;;;;;;;69.20;31.10;;;;;;;2.04;80.46;100699.90;130138;1257;115245;-61
2023/01/27 06:08:26;;;;;;;74.40;33.60;;;;;;;2.06;80.46;100698.83;129835;1266;114903;-62
2023/01/27 06:11:29;;;;;;;72.50;31.10;;;;;;;2.04;80.23;100699.91;130161;1253;114785;-62
2023/01/27 06:14:31;;;;;;;80.20;32.60;;;;;;;1.98;80.43;100706.65;130209;1275;115096;-63
2023/01/27 06:17:33;;;;;;;69.00;28.80;;;;;;;1.96;80.48;100711.77;130277;1266;114766;-61
2023/01/27 06:20:37;;;;;;;65.50;29.10;;;;;;;1.95;80.35;100716.17;129969;1275;128785;-61
2023/01/27 06:23:40;;;;;;;78.10;33.00;;;;;;;1.99;80.59;100718.43;130040;1253;114746;-63
2023/01/27 06:26:43;;;;;;;83.00;34.70;;;;;;;2.04;80.76;100716.46;130175;1256;114689;-61
2023/01/27 06:29:46;;;;;;;82.00;37.30;;;;;;;2.05;81.04;100718.74;130300;1271;114724;-62
2023/01/27 06:32:48;;;;;;;95.00;40.70;;;;;;;2.09;80.83;100723.47;130208;1275;115224;-63
2023/01/27 06:35:51;;;;;;;90.50;38.50;;;;;;;2.10;80.78;100724.86;130233;1275;114779;-61
2023/01/27 06:38:53;;;;;;;91.20;38.50;;;;;;;2.12;80.64;100722.02;130248;1275;114794;-61
2023/01/27 06:41:55;;;;;;;90.00;36.10;;;;;;;2.13;80.57;100728.02;129764;1257;116517;-62
2023/01/27 06:44:57;;;;;;;88.60;31.60;;;;;;;2.12;80.78;100729.98;130246;1257;114782;-63
2023/01/27 06:48:00;;;;;;;69.80;28.30;;;;;;;2.10;80.51;100735.44;130194;1253;114801;-62
2023/01/27 06:51:03;;;;;;;70.80;28.80;;;;;;;2.05;80.31;100731.60;129823;1255;114790;-63
2023/01/27 06:54:05;;;;;;;80.40;32.50;;;;;;;2.04;80.65;100733.02;130158;1258;115417;-63
2023/01/27 06:57:10;;;;;;;69.70;28.80;;;;;;;2.05;80.60;100734.08;130213;1267;114978;-63
2023/01/27 07:00:15;;;;;;;71.40;28.80;;;;;;;2.07;80.64;100733.35;130263;1266;115204;-65
2023/01/27 07:03:17;;;;;;;68.80;27.90;;;;;;;2.10;80.76;100736.66;130376;1254;114777;-69
2023/01/27 07:06:19;;;;;;;71.40;29.20;;;;;;;2.11;80.59;100734.38;130231;1256;114677;-69
2023/01/27 07:09:22;;;;;;;67.80;26.50;;;;;;;2.06;80.77;100734.60;130337;1275;114724;-66
2023/01/27 07:12:24;;;;;;;74.00;28.20;;;;;;;2.02;80.77;100732.85;130451;1252;115624;-68
2023/01/27 07:15:29;;;;;;;65.20;24.60;;;;;;;2.01;80.76;100732.52;130243;1264;127832;-69
2023/01/27 07:18:32;;;;;;;63.00;24.80;;;;;;;2.01;80.77;100736.56;130379;1273;115158;-70
2023/01/27 07:21:34;;;;;;;59.30;24.80;;;;;;;1.96;80.60;100733.42;130494;1256;114895;-69
2023/01/27 07:24:37;;;;;;;63.50;25.20;;;;;;;1.95;80.66;100741.36;130338;1270;115138;-64
2023/01/27 07:27:40;;;;;;;65.40;25.30;;;;;;;1.94;80.69;100738.73;130247;1258;114766;-62
2023/01/27 07:30:42;;;;;;;57.80;22.90;;;;;;;1.93;80.81;100737.32;130456;1257;114645;-62
2023/01/27 07:33:45;;;;;;;50.70;21.90;;;;;;;1.95;80.88;100737.30;130107;1275;128839;-61
2023/01/27 07:36:47;;;;;;;62.60;24.60;;;;;;;1.94;80.73;100738.55;130148;1275;114814;-63
2023/01/27 07:39:50;;;;;;;64.00;25.80;;;;;;;1.97;80.96;100743.82;130372;1257;114766;-61
2023/01/27 07:42:52;;;;;;;65.70;27.70;;;;;;;1.98;80.96;100754.39;129851;1257;297596;-61
2023/01/27 07:45:56;;;;;;;62.60;27.00;;;;;;;1.96;80.93;100753.52;129704;1257;114761;-61
2023/01/27 07:48:59;;;;;;;58.20;24.40;;;;;;;2.01;80.95;100754.89;129768;1270;114827;-61
2023/01/27 07:52:01;;;;;;;59.60;25.30;;;;;;;2.05;80.82;100750.11;129973;1257;114703;-61
2023/01/27 07:55:04;;;;;;;59.40;24.70;;;;;;;2.07;81.04;100752.55;130073;1258;114772;-61
2023/01/27 07:58:06;;;;;;;57.10;25.30;;;;;;;2.08;80.78;100752.72;130080;1257;115208;-61
2023/01/27 08:01:10;;;;;;;63.70;26.00;;;;;;;2.08;80.86;100757.64;129905;1271;114715;-61
2023/01/27 08:04:12;;;;;;;64.40;25.90;;;;;;;2.07;81.08;100752.91;130097;1253;114764;-61
2023/01/27 08:07:16;;;;;;;75.40;28.40;;;;;;;2.02;80.78;100755.23;130104;1276;114881;-62
2023/01/27 08:10:19;;;;;;;79.50;28.90;;;;;;;2.02;80.84;100755.06;130041;1270;114730;-61
2023/01/27 08:13:21;;;;;;;75.80;29.20;;;;;;;2.01;80.84;100757.70;130001;1276;114707;-61
2023/01/27 08:16:24;;;;;;;69.30;26.50;;;;;;;2.01;81.33;100755.59;130025;1254;114785;-61
2023/01/27 08:19:26;;;;;;;68.10;26.90;;;;;;;2.02;80.92;100758.76;130053;1257;114741;-61
2023/01/27 08:22:29;;;;;;;71.60;27.60;;;;;;;2.04;81.08;100763.85;129769;1276;114715;-61
2023/01/27 08:25:32;;;;;;;75.00;28.40;;;;;;;2.07;81.18;100764.53;130070;1254;114760;-61
2023/01/27 08:28:36;;;;;;;85.70;31.30;;;;;;;2.09;81.00;100765.59;130141;1273;114776;-62
2023/01/27 08:31:40;;;;;;;76.10;28.70;;;;;;;2.09;80.90;100768.23;129742;1257;116435;-62
2023/01/27 08:34:42;;;;;;;68.90;28.40;;;;;;;2.08;80.81;100767.69;130173;1270;115105;-61
2023/01/27 08:37:47;;;;;;;72.00;28.30;;;;;;;2.02;80.94;100769.85;130083;1255;114718;-62
2023/01/27 08:40:50;;;;;;;71.50;29.80;;;;;;;2.02;81.17;100772.15;130078;1254;114725;-61
2023/01/27 08:43:55;;;;;;;68.40;30.60;;;;;;;2.03;81.28;100772.84;130229;1257;114991;-63
2023/01/27 08:46:58;;;;;;;65.70;26.70;;;;;;;2.05;81.28;100775.30;130052;1275;115191;-65
2023/01/27 08:50:00;;;;;;;62.60;26.20;;;;;;;2.06;80.99;100778.46;130028;1259;114763;-71
2023/01/27 08:53:03;;;;;;;66.80;26.40;;;;;;;2.09;80.97;100780.20;130067;1256;115029;-67
2023/01/27 08:56:09;;;;;;;69.30;29.90;;;;;;;2.11;81.11;100782.30;130026;1255;115305;-66
2023/01/27 08:59:11;;;;;;;;;;;;;;;2.18;81.38;100781.54;129797;1262;127783;-66
2023/01/27 09:02:13;;;;;;;68.00;31.30;;;;;;;2.23;81.23;100778.15;130149;1254;114834;-67
2023/01/27 09:05:17;;;;;;;74.40;30.90;;;;;;;2.24;80.85;100775.33;130231;1256;114695;-66
2023/01/27 09:08:23;;;;;;;79.00;35.30;;;;;;;2.24;80.82;100777.98;130215;1273;114712;-67
2023/01/27 09:11:25;;;;;;;90.20;37.10;;;;;;;2.25;81.13;100787.66;129800;1275;114822;-66
2023/01/27 09:14:28;;;;;;;71.90;29.10;;;;;;;2.27;81.12;100788.36;130135;1270;114693;-67
2023/01/27 09:17:30;;;;;;;67.30;27.80;;;;;;;2.24;80.89;100795.08;130296;1253;114822;-66
2023/01/27 09:20:35;;;;;;;70.80;29.40;;;;;;;2.18;80.70;100796.52;130179;1254;114977;-66
2023/01/27 09:23:38;;;;;;;82.20;34.80;;;;;;;2.15;80.86;100799.38;130145;1254;114801;-67
2023/01/27 09:26:41;;;;;;;75.70;33.70;;;;;;;2.14;81.03;100808.19;130126;1257;114734;-67
2023/01/27 09:29:43;;;;;;;72.00;29.20;;;;;;;2.13;81.07;100809.08;130148;1257;114745;-67
2023/01/27 09:32:46;;;;;;;64.50;27.30;;;;;;;2.06;81.03;100808.77;130215;1254;114682;-68
2023/01/27 09:35:53;;;;;;;67.30;26.90;;;;;;;2.02;81.09;100813.01;129943;1259;127716;-67
2023/01/27 09:39:07;;;;;;;67.10;28.00;;;;;;;1.98;81.14;100814.45;130142;1275;115201;-67
2023/01/27 09:42:45;;;;;;;68.00;28.60;;;;;;;1.95;81.36;100822.04;130154;1256;114682;-67
2023/01/27 09:45:54;;;;;;;79.40;34.10;;;;;;;1.93;81.56;100825.58;130571;1256;114829;-66
2023/01/27 09:49:22;;;;;;;94.10;41.80;;;;;;;1.91;81.48;100829.45;130115;1272;115035;-69
2023/01/27 09:52:33;;;;;;;139.50;62.00;;;;;;;1.93;81.85;100829.09;129924;1256;128403;-69
2023/01/27 09:55:50;;;;;;;148.30;68.90;;;;;;;2.00;81.80;100830.65;129835;1271;116556;-68
2023/01/27 09:59:16;;;;;;;143.50;66.50;;;;;;;2.05;81.81;100824.80;129824;1254;115145;-73
2023/01/27 10:02:47;;;;;;;143.20;67.10;;;;;;;2.11;81.41;100826.01;130207;1254;115337;-73
2023/01/27 10:06:05;;;;;;;136.80;65.60;;;;;;;2.10;81.24;100821.26;129799;1258;116123;-66
2023/01/27 10:09:11;;;;;;;135.60;67.40;;;;;;;2.10;81.13;100818.61;129930;1275;128471;-70
2023/01/27 10:12:45;;;;;;;152.20;72.80;;;;;;;2.14;81.31;100817.36;130156;1269;115234;-70
2023/01/27 10:16:12;;;;;;;141.70;70.50;;;;;;;2.20;81.39;100813.44;129980;1254;114773;-68
2023/01/27 10:19:27;;;;;;;278.90;145.80;;;;;;;2.21;81.33;100814.30;130104;1254;114726;-70
2023/01/27 10:23:07;;;;;;;131.10;64.60;;;;;;;2.22;81.08;100815.71;130088;1260;114741;-71
2023/01/27 10:26:35;;;;;;;123.50;59.60;;;;;;;2.23;81.09;100815.88;130059;1272;129786;-72
2023/01/27 10:29:47;;;;;;;120.00;57.20;;;;;;;2.28;81.25;100814.26;129890;1254;116529;-70
2023/01/27 10:33:14;;;;;;;125.30;58.80;;;;;;;2.21;80.76;100811.83;129933;1260;114923;-69
2023/01/27 10:36:46;;;;;;;120.30;58.00;;;;;;;2.15;80.94;100814.00;130282;1257;114722;-68
2023/01/27 10:40:11;;;;;;;119.70;56.70;;;;;;;2.17;80.99;100817.50;129983;1267;114810;-70
2023/01/27 10:43:20;;;;;;;;;;;;;;;2.17;80.68;100819.62;130040;1275;127870;-69
2023/01/27 10:46:44;;;;;;;117.70;57.50;;;;;;;2.08;80.65;100817.21;130190;1256;115951;-70
2023/01/27 10:50:10;;;;;;;126.60;55.80;;;;;;;2.00;80.70;100815.66;130626;1253;114654;-66
2023/01/27 10:53:19;;;;;;;130.30;58.30;;;;;;;1.97;80.94;100819.74;131103;1254;115002;-68
2023/01/27 10:56:29;;;;;;;128.30;58.40;;;;;;;1.94;80.98;100819.92;130064;1270;114760;-68
2023/01/27 10:59:50;;;;;;;153.90;62.00;;;;;;;1.95;81.12;100819.39;130265;1269;129596;-68
2023/01/27 11:03:09;;;;;;;140.00;62.00;;;;;;;2.03;81.36;100821.11;129968;1261;115160;-65
2023/01/27 11:06:14;;;;;;;137.70;61.40;;;;;;;2.11;81.27;100821.77;129671;1263;115101;-68
2023/01/27 11:09:23;;;;;;;136.80;58.20;;;;;;;2.10;81.00;100822.31;129755;1269;114709;-67
2023/01/27 11:12:35;;;;;;;152.90;62.00;;;;;;;2.07;80.79;100822.86;129824;1254;114740;-69
2023/01/27 11:15:37;;;;;;;148.70;62.70;;;;;;;2.05;80.68;100818.11;129933;1254;127807;-70
2023/01/27 11:18:42;;;;;;;147.30;60.90;;;;;;;2.03;80.57;100822.00;129963;1257;115256;-66
2023/01/27 11:21:44;;;;;;;168.60;65.70;;;;;;;2.02;80.60;100818.30;129917;1254;114955;-69
2023/01/27 11:24:52;;;;;;;167.10;65.20;;;;;;;2.02;80.81;100819.36;130099;1254;114704;-67
2023/01/27 11:28:05;;;;;;;178.20;68.50;;;;;;;2.03;80.62;100821.64;130184;1272;114878;-71
2023/01/27 11:31:45;;;;;;;181.40;68.40;;;;;;;1.98;80.69;100817.09;130075;1257;127509;-67
2023/01/27 11:35:05;;;;;;;172.60;66.50;;;;;;;1.99;80.71;100815.52;130127;1269;115166;-65
2023/01/27 11:38:13;;;;;;;157.60;64.40;;;;;;;1.96;80.47;100811.64;129650;1262;114860;-67
2023/01/27 11:41:16;;;;;;;169.10;65.70;;;;;;;1.95;80.69;100812.35;130030;1256;114857;-68
2023/01/27 11:44:29;;;;;;;168.20;65.80;;;;;;;1.94;80.65;100813.59;130067;1257;114705;-67
2023/01/27 11:47:36;;;;;;;176.80;65.90;;;;;;;1.96;80.68;100816.58;130008;1270;128174;-67
2023/01/27 11:50:40;;;;;;;167.80;65.60;;;;;;;1.93;80.37;100817.65;129667;1261;115141;-69
2023/01/27 11:53:44;;;;;;;177.80;69.90;;;;;;;1.93;80.64;100814.12;130208;1275;115159;-69
2023/01/27 11:56:48;;;;;;;168.90;64.90;;;;;;;1.90;80.28;100818.55;129755;1262;114926;-70
2023/01/27 12:00:03;;;;;;;164.30;63.90;;;;;;;1.84;80.76;100816.29;130607;1253;115379;-68
2023/01/27 12:03:16;;;;;;;161.70;63.50;;;;;;;1.83;80.80;100818.40;130446;1254;128524;-69
2023/01/27 12:06:37;;;;;;;146.30;60.70;;;;;;;1.78;80.37;100823.19;130341;1254;115173;-70
2023/01/27 12:09:40;;;;;;;144.40;57.80;;;;;;;1.73;80.38;100818.64;129765;1259;114899;-71
2023/01/27 12:12:43;;;;;;;134.00;56.70;;;;;;;1.71;80.42;100814.59;130193;1256;114693;-71
2023/01/27 12:15:51;;;;;;;185.60;83.80;;;;;;;1.69;80.66;100815.84;130180;1257;115059;-72
2023/01/27 12:19:03;;;;;;;148.80;62.90;;;;;;;1.64;80.28;100812.34;130047;1257;128742;-68
2023/01/27 12:22:16;;;;;;;137.80;57.70;;;;;;;1.65;80.54;100810.94;130028;1261;115239;-71
2023/01/27 12:25:26;;;;;;;146.00;59.20;;;;;;;1.63;80.69;100809.53;129950;1260;115092;-70
2023/01/27 12:28:44;;;;;;;145.90;58.10;;;;;;;1.66;80.90;100800.88;129987;1275;114725;-69
2023/01/27 12:31:48;;;;;;;141.50;59.10;;;;;;;1.72;80.92;100797.68;130077;1256;114792;-68
2023/01/27 12:34:55;;;;;;;141.70;61.50;;;;;;;1.72;81.01;100800.15;130058;1266;128650;-68
2023/01/27 12:38:04;;;;;;;165.20;70.80;;;;;;;1.73;80.90;100804.37;130060;1270;115568;-67
2023/01/27 12:41:08;;;;;;;146.50;61.00;;;;;;;1.73;80.82;100804.37;129989;1254;114781;-68
2023/01/27 12:44:16;;;;;;;128.80;55.90;;;;;;;1.67;80.81;100803.34;129968;1259;114840;-68
2023/01/27 12:47:25;;;;;;;160.90;60.80;;;;;;;1.57;80.64;100799.17;130006;1254;115854;-67
2023/01/27 12:50:30;;;;;;;179.40;70.60;;;;;;;1.51;80.56;100800.42;130001;1256;128926;-66
2023/01/27 12:53:33;;;;;;;146.40;56.90;;;;;;;1.47;80.76;100804.48;130032;1260;114782;-68
2023/01/27 12:56:36;;;;;;;162.50;64.90;;;;;;;1.42;80.79;100806.26;129971;1259;114704;-65
2023/01/27 12:59:49;;;;;;;157.90;64.00;;;;;;;1.38;81.22;100809.45;130089;1256;114696;-67
2023/01/27 13:02:53;;;;;;;172.60;67.50;;;;;;;1.32;80.86;100807.18;129681;1254;114818;-67
2023/01/27 13:05:57;;;;;;;167.80;65.30;;;;;;;1.31;81.17;100806.48;129658;1260;127805;-62
2023/01/27 13:09:01;;;;;;;183.10;68.40;;;;;;;1.31;81.62;100807.00;129645;1263;115006;-67
2023/01/27 13:12:30;;;;;;;175.20;66.30;;;;;;;1.32;81.54;100811.23;129826;1276;115465;-68
2023/01/27 13:15:33;;;;;;;183.80;68.60;;;;;;;1.32;81.65;100812.29;129915;1257;114790;-67
2023/01/27 13:18:41;;;;;;;167.10;63.60;;;;;;;1.32;81.60;100815.27;130044;1257;115333;-62
2023/01/27 13:21:47;;;;;;;170.30;67.00;;;;;;;1.29;81.21;100821.80;129964;1276;128838;-67
2023/01/27 13:24:53;;;;;;;157.80;59.30;;;;;;;1.26;81.25;100824.43;129728;1258;116345;-60
2023/01/27 13:27:58;;;;;;;180.80;69.50;;;;;;;1.22;81.57;100831.49;130204;1276;114676;-68
2023/01/27 13:31:08;;;;;;;181.10;69.90;;;;;;;1.20;81.63;100829.04;130103;1257;114756;-69
2023/01/27 13:34:44;;;;;;;167.00;67.20;;;;;;;1.23;82.05;100838.19;129757;1257;114804;-62
2023/01/27 13:37:58;;;;;;;168.20;63.30;;;;;;;1.25;81.81;100838.87;129770;1276;128382;-64
2023/01/27 13:41:07;;;;;;;173.20;65.90;;;;;;;1.26;82.07;100846.43;130123;1260;115246;-62
2023/01/27 13:44:23;;;;;;;177.60;67.90;;;;;;;1.26;81.68;100848.20;130094;1260;114754;-69
2023/01/27 13:47:48;;;;;;;177.40;73.30;;;;;;;1.28;81.78;100854.70;129786;1260;116425;-59
2023/01/27 13:51:14;;;;;;;165.90;61.30;;;;;;;1.35;82.36;100856.08;129932;1254;116442;-63
2023/01/27 13:54:17;;;;;;;150.00;61.60;;;;;;;1.34;82.00;100859.08;130146;1261;128454;-65
2023/01/27 13:57:46;;;;;;;167.90;68.80;;;;;;;1.28;81.69;100863.15;130264;1254;114811;-67
2023/01/27 14:01:09;;;;;;;186.00;77.20;;;;;;;1.27;82.26;100869.13;129464;1266;115650;-67
2023/01/27 14:04:30;;;;;;;163.80;72.20;;;;;;;1.26;82.23;100873.52;128726;1267;114920;-63
2023/01/27 14:07:38;;;;;;;135.70;58.00;;;;;;;1.27;82.46;100875.29;128942;1266;114903;-62
2023/01/27 14:10:54;;;;;;;168.40;68.80;;;;;;;1.24;82.36;100873.36;128813;1289;129542;-66
2023/01/27 14:14:30;;;;;;;140.60;55.40;;;;;;;1.27;82.57;100875.98;129043;1282;115234;-62
2023/01/27 14:17:53;;;;;;;119.20;47.30;;;;;;;1.30;82.51;100880.40;128903;1267;114889;-65
2023/01/27 14:21:19;;;;;;;99.10;45.30;;;;;;;1.31;82.63;100880.38;128781;1271;114943;-69
2023/01/27 14:24:28;;;;;;;;;;;;;;;1.31;82.38;100882.32;128834;1268;114845;-67